Buoy 56916

sailwx.info

Track history (hours):
 
Tides and Currents Weather Stations Pressure Air Temp Water Temp Dewpoint Dewpoint Depression Visibility Wind Speed Wind Dir Waves Ship Positions

Drifting buoy 56916

Last reported at 2017-Dec-11 15:00 UTC. Time now 2017-Dec-13 11:25 UTC.
Position S 43°53' W 168°51'.

Barometer 1018.6 mb
Water temperature 14.7 ° C

Date/timePositionNaut miles runAvg speedWind from/ knotsBaromVisibWave heightAir tempDewpointWater temp
2017-Dec-11 15:00S 43°53' W 168°51'1 0.9 1018.6 14.7
2017-Dec-11 14:00S 43°53' W 168°52'1 1.3 1018.7 14.7
2017-Dec-11 13:00S 43°53' W 168°54'2 0.6 1019.1 14.7
2017-Dec-11 10:00S 43°52' W 168°53'1 0.4 1020.4 14.7
2017-Dec-11 08:00S 43°51' W 168°54'1 0.7 1020.5 14.7
2017-Dec-11 07:00S 43°50' W 168°55'0 0.4 1020.1 14.7
2017-Dec-11 06:00S 43°50' W 168°54'1 0.4 1019.8 14.8
2017-Dec-11 04:00S 43°50' W 168°55'1 1.1 1020.1 14.8
2017-Dec-11 03:00S 43°50' W 168°56'1 0.6 1020.4 14.8
2017-Dec-11 02:00S 43°50' W 168°56'2 0.4 1020.4 14.8
2017-Dec-10 21:00S 43°49' W 168°58'1 0.9 1021.4 14.6
2017-Dec-10 20:00S 43°49' W 168°59'1 0.6 1021.6 14.5
2017-Dec-10 19:00S 43°48' W 168°59'0 0.4 1021.6 14.5
2017-Dec-10 18:00S 43°48' W 169°00'1 1.5 1021.4 14.5
2017-Dec-10 17:00S 43°47' W 169°01'0 0.0 1021.3 14.4
2017-Dec-10 15:00S 43°47' W 169°01'2 2.1 1020.9 14.5
2017-Dec-10 14:00S 43°46' W 169°04'1 0.9 1021.1 14.5
2017-Dec-10 13:00S 43°46' W 169°02'1 0.4 1021.6 14.5
2017-Dec-10 10:00S 43°44' W 169°03'0 0.0 1023.3 14.5
2017-Dec-10 09:00S 43°44' W 169°03'0 0.4 1023.1 14.6
2017-Dec-10 08:00S 43°44' W 169°04'1 0.9 1022.7 14.6
2017-Dec-10 07:00S 43°44' W 169°05'1 0.3 1022.3 14.6
2017-Dec-10 05:00S 43°44' W 169°05'1 0.6 1022.4 14.6
2017-Dec-10 04:00S 43°44' W 169°05'1 1.1 1022.8 14.6
2017-Dec-10 03:00S 43°44' W 169°06'0 0.0 1023.2 14.6
2017-Dec-10 02:00S 43°44' W 169°06'5 1.0 1023.4 14.6
2017-Dec-09 21:00S 43°41' W 169°11'1 1.3 1025.5 14.3
2017-Dec-09 20:00S 43°41' W 169°10'0 0.4 1025.7 14.3
2017-Dec-09 19:00S 43°41' W 169°10'0 0.0 1026.0 14.2
2017-Dec-09 18:00S 43°41' W 169°10'0 0.4 1026.1 14.2
2017-Dec-09 17:00S 43°41' W 169°10'1 0.9 1026.1 14.2
2017-Dec-09 16:00S 43°41' W 169°11'0 0.0 1026.2 14.3
2017-Dec-09 15:00S 43°41' W 169°11'0 0.0 1025.9 14.3
2017-Dec-09 14:00S 43°41' W 169°11'1 0.4 1026.2 14.3
2017-Dec-09 11:00S 43°40' W 169°12'0 0.0 1026.9 14.3
2017-Dec-09 10:00S 43°40' W 169°12'1 1.1 1027.4 14.4
2017-Dec-09 09:00S 43°41' W 169°13'1 0.6 1027.6 14.4
2017-Dec-09 08:00S 43°40' W 169°13'0 0.0 1027.8 14.4
2017-Dec-09 07:00S 43°40' W 169°13'1 0.4 1027.6 14.4
2017-Dec-09 05:00S 43°40' W 169°14'1 0.9 1027.6 14.5
2017-Dec-09 04:00S 43°40' W 169°15'0 0.0 1027.5 14.5
2017-Dec-09 03:00S 43°40' W 169°15'0 0.0 1027.7 14.6
2017-Dec-09 02:00S 43°40' W 169°15'1 0.3 1027.7 14.6
2017-Dec-08 21:00S 43°40' W 169°17'0 0.4 1028.5 14.2
2017-Dec-08 20:00S 43°40' W 169°16'0 0.0 1028.6 14.2
2017-Dec-08 19:00S 43°40' W 169°16'0 0.4 1028.5 14.1
2017-Dec-08 18:00S 43°40' W 169°17'1 0.7 1028.3 14.1
2017-Dec-08 17:00S 43°40' W 169°16'0 0.4 1028.2 14.1
2017-Dec-08 16:00S 43°40' W 169°17'2 0.9 1027.8 14.1
2017-Dec-08 14:00S 43°40' W 169°19'1 0.3 1027.5 14.1
2017-Dec-08 10:00S 43°40' W 169°21'1 0.7 1027.7 14.1
2017-Dec-08 09:00S 43°40' W 169°20'0 0.0 1027.7 14.2
2017-Dec-08 08:00S 43°40' W 169°20'1 0.6 1027.5 14.2
2017-Dec-08 07:00S 43°40' W 169°20'0 0.4 1027.0 14.2
2017-Dec-08 06:00S 43°40' W 169°20'1 0.4 1026.9 14.2
2017-Dec-08 04:00S 43°41' W 169°20'2 1.8 1026.6 14.2
2017-Dec-08 03:00S 43°42' W 169°22'0 0.0 1026.5 14.3
2017-Dec-08 02:00S 43°42' W 169°22'1 0.1 1026.5 14.2
2017-Dec-07 20:00S 43°43' W 169°22'1 0.9 1026.1 14.1
2017-Dec-07 19:00S 43°43' W 169°23'0 0.4 1026.1 14.1
2017-Dec-07 18:00S 43°43' W 169°22'0 0.4 1025.5 14.1
2017-Dec-07 17:00S 43°43' W 169°23'1 0.4 1025.0 14.1
2017-Dec-07 14:00S 43°42' W 169°22'0 0.0 1023.4 14.1
2017-Dec-07 13:00S 43°42' W 169°22'0 0.0 1023.2 14.1
2017-Dec-07 12:00S 43°42' W 169°22'1 1.3 1023.1 14.1
2017-Dec-07 11:00S 43°43' W 169°21'0 0.0 1023.0 14.1
2017-Dec-07 10:00S 43°43' W 169°21'1 1.2 1022.6 14.1
2017-Dec-07 09:00S 43°44' W 169°21'0 0.4 1022.3 14.1
2017-Dec-07 08:00S 43°44' W 169°20'1 0.7 1022.1 14.1
2017-Dec-07 07:00S 43°45' W 169°21'1 0.6 1021.2 14.1
2017-Dec-07 06:00S 43°46' W 169°21'0 0.0 1020.6 14.1
2017-Dec-07 05:00S 43°46' W 169°21'1 1.3 1020.2 14.1
2017-Dec-07 04:00S 43°47' W 169°22'1 0.7 1019.7 14.2
2017-Dec-07 03:00S 43°46' W 169°22'1 0.1 1019.5 14.2
2017-Dec-06 21:00S 43°47' W 169°22'0 0.4 1018.7 14.1
2017-Dec-06 20:00S 43°47' W 169°22'1 1.2 1018.5 14.1
2017-Dec-06 19:00S 43°48' W 169°22'1 1.1 1018.0 14.1
2017-Dec-06 18:00S 43°49' W 169°23'1 1.1 1017.6 14.1
2017-Dec-06 17:00S 43°49' W 169°22'1 0.6 1017.4 14.1
2017-Dec-06 16:00S 43°50' W 169°22'0 0.0 1017.0 14.2
2017-Dec-06 15:00S 43°50' W 169°22'1 0.7 1016.5 14.2
2017-Dec-06 14:00S 43°50' W 169°22'2 2.0 1016.4 14.2
2017-Dec-06 13:00S 43°52' W 169°23'2 2.0 1016.4 14.2
2017-Dec-06 12:00S 43°50' W 169°22'1 0.6 1016.4 14.1
2017-Dec-06 10:00S 43°52' W 169°23'1 0.7
2017-Dec-06 09:00S 43°52' W 169°23'0 0.0 1015.9 14.1
2017-Dec-06 08:00S 43°52' W 169°23'1 0.7 1015.8 14.0
2017-Dec-06 07:00S 43°53' W 169°24'0 0.4 1015.2 14.1
2017-Dec-06 06:00S 43°53' W 169°25'1 0.6 1014.6 14.1
2017-Dec-06 05:00S 43°53' W 169°25'0 0.0 1014.2 14.1
2017-Dec-06 04:00S 43°53' W 169°25'1 1.1 1013.7 14.1
2017-Dec-06 03:00S 43°54' W 169°26'3 0.5 1013.5 14.1
2017-Dec-05 21:00S 43°56' W 169°23'1 0.6 1011.3 14.1
2017-Dec-05 20:00S 43°56' W 169°23'1 1.2 1010.7 14.0
2017-Dec-05 19:00S 43°58' W 169°23'0 0.0 1010.3 14.0
2017-Dec-05 18:00S 43°58' W 169°23'1 1.1 1010.1 14.0
2017-Dec-05 17:00S 43°58' W 169°24'1 0.5 1009.9 14.0
2017-Dec-05 15:00S 43°59' W 169°25'1 1.4 1009.8 14.0
2017-Dec-05 14:00S 43°59' W 169°27'1 1.3 1009.9 14.0
2017-Dec-05 13:00S 43°59' W 169°29'1 0.2 1010.3 14.0
2017-Dec-05 10:00S 43°59' W 169°29'1 0.7 1012.0 14.0
2017-Dec-05 09:00S 43°58' W 169°30'0 0.4 1012.1 14.0
2017-Dec-05 08:00S 43°58' W 169°31'0 0.2 1012.4 14.0
2017-Dec-05 06:00S 43°58' W 169°31'1 0.6 1013.0 14.0
2017-Dec-05 05:00S 43°58' W 169°31'1 1.3 1013.7 14.0
2017-Dec-05 04:00S 43°59' W 169°31'1 0.7 1013.8 14.0
2017-Dec-05 03:00S 43°59' W 169°31'1 0.5 1014.3 14.1
2017-Dec-05 01:00S 44°00' W 169°32'4 0.9 1015.2 14.1
2017-Dec-04 21:00S 44°01' W 169°37'1 1.4 1017.2 13.9
2017-Dec-04 20:00S 44°02' W 169°39'1 0.7 1017.3 13.9
2017-Dec-04 19:00S 44°01' W 169°40'0 0.0 1017.6 13.9
2017-Dec-04 18:00S 44°01' W 169°40'1 0.2 1017.5 13.9
2017-Dec-04 13:00S 44°02' W 169°40'0 0.0 1017.4 13.8
2017-Dec-04 11:00S 44°02' W 169°40'1 0.7 1018.0 13.9
2017-Dec-04 10:00S 44°03' W 169°40'1 0.7 1017.9 13.9
2017-Dec-04 09:00S 44°04' W 169°41'1 0.4 1017.6 13.9
2017-Dec-04 06:00S 44°05' W 169°41'2 1.8 1015.8 13.9
2017-Dec-04 05:00S 44°05' W 169°43'0 0.0 1014.7 14.0
2017-Dec-04 04:00S 44°05' W 169°43'1 1.4 1014.5 14.0
2017-Dec-04 03:00S 44°06' W 169°45'0 0.0 1014.4 14.0
2017-Dec-04 02:00S 44°06' W 169°45'1 1.1 1014.5 14.0
2017-Dec-04 01:00S 44°05' W 169°46'1 0.2 1014.5 14.0
2017-Dec-03 20:00S 44°05' W 169°45'1 0.7 1015.9 14.0
2017-Dec-03 19:00S 44°06' W 169°46'1 0.7 1015.8 13.9
2017-Dec-03 18:00S 44°07' W 169°45'1 0.6 1015.5 13.9
2017-Dec-03 16:00S 44°08' W 169°46'0 0.0 1014.8 13.9
2017-Dec-03 15:00S 44°08' W 169°46'1 0.7 1014.5 13.9
2017-Dec-03 14:00S 44°08' W 169°46'3 2.8 1014.5 13.9
2017-Dec-03 13:00S 44°10' W 169°50'0 0.0 1014.4 13.9
2017-Dec-03 10:00S 44°10' W 169°50'0 0.4 1014.9 13.9
2017-Dec-03 09:00S 44°10' W 169°50'0 0.0 1014.8 13.9
2017-Dec-03 08:00S 44°10' W 169°50'1 1.0 1014.7 13.9
2017-Dec-03 07:00S 44°10' W 169°52'0 0.0 1014.4 13.9
2017-Dec-03 06:00S 44°10' W 169°52'1 1.4 1014.3 13.9
2017-Dec-03 05:00S 44°11' W 169°53'1 1.0 1014.2 13.9
2017-Dec-03 04:00S 44°11' W 169°55'0 0.0 1014.4 13.9
2017-Dec-03 03:00S 44°11' W 169°55'0 0.0 1014.7 13.9
2017-Dec-03 02:00S 44°11' W 169°55'4 3.9 1014.9 13.9
2017-Dec-03 01:00S 44°14' W 169°59'2 0.4 1015.2 13.9
2017-Dec-02 20:00S 44°14' W 170°02'0 0.4 1016.7 13.7
2017-Dec-02 19:00S 44°14' W 170°02'1 0.7 1017.0 13.7
2017-Dec-02 18:00S 44°15' W 170°03'1 0.9 1017.3 13.7
2017-Dec-02 17:00S 44°15' W 170°04'1 0.6 1017.5 13.7
2017-Dec-02 15:00S 44°15' W 170°06'2 1.7 1018.1 13.7
2017-Dec-02 14:00S 44°15' W 170°08'2 2.1 1018.4 13.8
2017-Dec-02 13:00S 44°16' W 170°11'0 0.0 1019.4 13.8
2017-Dec-02 11:00S 44°16' W 170°11'0 0.4 1021.1 13.8
2017-Dec-02 10:00S 44°16' W 170°11'0 0.4 1021.3 13.8
2017-Dec-02 09:00S 44°16' W 170°12'1 1.0 1021.9 13.8
2017-Dec-02 08:00S 44°17' W 170°13'0 0.0 1022.4 13.8
2017-Dec-02 07:00S 44°17' W 170°13'1 1.0 1022.5 13.9
2017-Dec-02 06:00S 44°17' W 170°14'1 0.7 1022.7 13.9
2017-Dec-02 05:00S 44°18' W 170°15'1 0.7 1022.9 13.9
2017-Dec-02 04:00S 44°19' W 170°16'1 1.4 1023.3 14.0
2017-Dec-02 03:00S 44°19' W 170°17'0 0.0 1023.9 13.9
2017-Dec-02 02:00S 44°19' W 170°17'4 1.0 1024.5 13.9
2017-Dec-01 22:00S 44°22' W 170°22'0 0.0 1026.4 13.7
2017-Dec-01 21:00S 44°22' W 170°22'1 1.0 1026.4 13.6
2017-Dec-01 20:00S 44°22' W 170°23'0 0.4 1026.5 13.6
2017-Dec-01 19:00S 44°22' W 170°24'1 0.4 1026.7 13.6
2017-Dec-01 17:00S 44°23' W 170°25'2 0.9 1026.3 13.5
2017-Dec-01 15:00S 44°24' W 170°26'   1026.5 13.6
Track history (hours):
 
Tides and Currents Weather Stations Pressure Air Temp Water Temp Dewpoint Dewpoint Depression Visibility Wind Speed Wind Dir Waves Ship Positions

Drifting buoy 56916

Last reported at 2017-Dec-11 15:00 UTC. Time now 2017-Dec-13 11:25 UTC.
Position S 43°53' W 168°51'.

Barometer 1018.6 mb
Water temperature 14.7 ° C

Date/timePositionNaut miles runAvg speedWind from/ knotsBaromVisibWave heightAir tempDewpointWater temp
2017-Dec-11 15:00S 43°53' W 168°51'1 0.9 1018.6 14.7
2017-Dec-11 14:00S 43°53' W 168°52'1 1.3 1018.7 14.7
2017-Dec-11 13:00S 43°53' W 168°54'2 0.6 1019.1 14.7
2017-Dec-11 10:00S 43°52' W 168°53'1 0.4 1020.4 14.7
2017-Dec-11 08:00S 43°51' W 168°54'1 0.7 1020.5 14.7
2017-Dec-11 07:00S 43°50' W 168°55'0 0.4 1020.1 14.7
2017-Dec-11 06:00S 43°50' W 168°54'1 0.4 1019.8 14.8
2017-Dec-11 04:00S 43°50' W 168°55'1 1.1 1020.1 14.8
2017-Dec-11 03:00S 43°50' W 168°56'1 0.6 1020.4 14.8
2017-Dec-11 02:00S 43°50' W 168°56'2 0.4 1020.4 14.8
2017-Dec-10 21:00S 43°49' W 168°58'1 0.9 1021.4 14.6
2017-Dec-10 20:00S 43°49' W 168°59'1 0.6 1021.6 14.5
2017-Dec-10 19:00S 43°48' W 168°59'0 0.4 1021.6 14.5
2017-Dec-10 18:00S 43°48' W 169°00'1 1.5 1021.4 14.5
2017-Dec-10 17:00S 43°47' W 169°01'0 0.0 1021.3 14.4
2017-Dec-10 15:00S 43°47' W 169°01'2 2.1 1020.9 14.5
2017-Dec-10 14:00S 43°46' W 169°04'1 0.9 1021.1 14.5
2017-Dec-10 13:00S 43°46' W 169°02'1 0.4 1021.6 14.5
2017-Dec-10 10:00S 43°44' W 169°03'0 0.0 1023.3 14.5
2017-Dec-10 09:00S 43°44' W 169°03'0 0.4 1023.1 14.6
2017-Dec-10 08:00S 43°44' W 169°04'1 0.9 1022.7 14.6
2017-Dec-10 07:00S 43°44' W 169°05'1 0.3 1022.3 14.6
2017-Dec-10 05:00S 43°44' W 169°05'1 0.6 1022.4 14.6
2017-Dec-10 04:00S 43°44' W 169°05'1 1.1 1022.8 14.6
2017-Dec-10 03:00S 43°44' W 169°06'0 0.0 1023.2 14.6
2017-Dec-10 02:00S 43°44' W 169°06'5 1.0 1023.4 14.6
2017-Dec-09 21:00S 43°41' W 169°11'1 1.3 1025.5 14.3
2017-Dec-09 20:00S 43°41' W 169°10'0 0.4 1025.7 14.3
2017-Dec-09 19:00S 43°41' W 169°10'0 0.0 1026.0 14.2
2017-Dec-09 18:00S 43°41' W 169°10'0 0.4 1026.1 14.2
2017-Dec-09 17:00S 43°41' W 169°10'1 0.9 1026.1 14.2
2017-Dec-09 16:00S 43°41' W 169°11'0 0.0 1026.2 14.3
2017-Dec-09 15:00S 43°41' W 169°11'0 0.0 1025.9 14.3
2017-Dec-09 14:00S 43°41' W 169°11'1 0.4 1026.2 14.3
2017-Dec-09 11:00S 43°40' W 169°12'0 0.0 1026.9 14.3
2017-Dec-09 10:00S 43°40' W 169°12'1 1.1 1027.4 14.4
2017-Dec-09 09:00S 43°41' W 169°13'1 0.6 1027.6 14.4
2017-Dec-09 08:00S 43°40' W 169°13'0 0.0 1027.8 14.4
2017-Dec-09 07:00S 43°40' W 169°13'1 0.4 1027.6 14.4
2017-Dec-09 05:00S 43°40' W 169°14'1 0.9 1027.6 14.5
2017-Dec-09 04:00S 43°40' W 169°15'0 0.0 1027.5 14.5
2017-Dec-09 03:00S 43°40' W 169°15'0 0.0 1027.7 14.6
2017-Dec-09 02:00S 43°40' W 169°15'1 0.3 1027.7 14.6
2017-Dec-08 21:00S 43°40' W 169°17'0 0.4 1028.5 14.2
2017-Dec-08 20:00S 43°40' W 169°16'0 0.0 1028.6 14.2
2017-Dec-08 19:00S 43°40' W 169°16'0 0.4 1028.5 14.1
2017-Dec-08 18:00S 43°40' W 169°17'1 0.7 1028.3 14.1
2017-Dec-08 17:00S 43°40' W 169°16'0 0.4 1028.2 14.1
2017-Dec-08 16:00S 43°40' W 169°17'2 0.9 1027.8 14.1
2017-Dec-08 14:00S 43°40' W 169°19'1 0.3 1027.5 14.1
2017-Dec-08 10:00S 43°40' W 169°21'1 0.7 1027.7 14.1
2017-Dec-08 09:00S 43°40' W 169°20'0 0.0 1027.7 14.2
2017-Dec-08 08:00S 43°40' W 169°20'1 0.6 1027.5 14.2
2017-Dec-08 07:00S 43°40' W 169°20'0 0.4 1027.0 14.2
2017-Dec-08 06:00S 43°40' W 169°20'1 0.4 1026.9 14.2
2017-Dec-08 04:00S 43°41' W 169°20'2 1.8 1026.6 14.2
2017-Dec-08 03:00S 43°42' W 169°22'0 0.0 1026.5 14.3
2017-Dec-08 02:00S 43°42' W 169°22'1 0.1 1026.5 14.2
2017-Dec-07 20:00S 43°43' W 169°22'1 0.9 1026.1 14.1
2017-Dec-07 19:00S 43°43' W 169°23'0 0.4 1026.1 14.1
2017-Dec-07 18:00S 43°43' W 169°22'0 0.4 1025.5 14.1
2017-Dec-07 17:00S 43°43' W 169°23'1 0.4 1025.0 14.1
2017-Dec-07 14:00S 43°42' W 169°22'0 0.0 1023.4 14.1
2017-Dec-07 13:00S 43°42' W 169°22'0 0.0 1023.2 14.1
2017-Dec-07 12:00S 43°42' W 169°22'1 1.3 1023.1 14.1
2017-Dec-07 11:00S 43°43' W 169°21'0 0.0 1023.0 14.1
2017-Dec-07 10:00S 43°43' W 169°21'1 1.2 1022.6 14.1
2017-Dec-07 09:00S 43°44' W 169°21'0 0.4 1022.3 14.1
2017-Dec-07 08:00S 43°44' W 169°20'1 0.7 1022.1 14.1
2017-Dec-07 07:00S 43°45' W 169°21'1 0.6 1021.2 14.1
2017-Dec-07 06:00S 43°46' W 169°21'0 0.0 1020.6 14.1
2017-Dec-07 05:00S 43°46' W 169°21'1 1.3 1020.2 14.1
2017-Dec-07 04:00S 43°47' W 169°22'1 0.7 1019.7 14.2
2017-Dec-07 03:00S 43°46' W 169°22'1 0.1 1019.5 14.2
2017-Dec-06 21:00S 43°47' W 169°22'0 0.4 1018.7 14.1
2017-Dec-06 20:00S 43°47' W 169°22'1 1.2 1018.5 14.1
2017-Dec-06 19:00S 43°48' W 169°22'1 1.1 1018.0 14.1
2017-Dec-06 18:00S 43°49' W 169°23'1 1.1 1017.6 14.1
2017-Dec-06 17:00S 43°49' W 169°22'1 0.6 1017.4 14.1
2017-Dec-06 16:00S 43°50' W 169°22'0 0.0 1017.0 14.2
2017-Dec-06 15:00S 43°50' W 169°22'1 0.7 1016.5 14.2
2017-Dec-06 14:00S 43°50' W 169°22'2 2.0 1016.4 14.2
2017-Dec-06 13:00S 43°52' W 169°23'2 2.0 1016.4 14.2
2017-Dec-06 12:00S 43°50' W 169°22'1 0.6 1016.4 14.1
2017-Dec-06 10:00S 43°52' W 169°23'1 0.7
2017-Dec-06 09:00S 43°52' W 169°23'0 0.0 1015.9 14.1
2017-Dec-06 08:00S 43°52' W 169°23'1 0.7 1015.8 14.0
2017-Dec-06 07:00S 43°53' W 169°24'0 0.4 1015.2 14.1
2017-Dec-06 06:00S 43°53' W 169°25'1 0.6 1014.6 14.1
2017-Dec-06 05:00S 43°53' W 169°25'0 0.0 1014.2 14.1
2017-Dec-06 04:00S 43°53' W 169°25'1 1.1 1013.7 14.1
2017-Dec-06 03:00S 43°54' W 169°26'3 0.5 1013.5 14.1
2017-Dec-05 21:00S 43°56' W 169°23'1 0.6 1011.3 14.1
2017-Dec-05 20:00S 43°56' W 169°23'1 1.2 1010.7 14.0
2017-Dec-05 19:00S 43°58' W 169°23'0 0.0 1010.3 14.0
2017-Dec-05 18:00S 43°58' W 169°23'1 1.1 1010.1 14.0
2017-Dec-05 17:00S 43°58' W 169°24'1 0.5 1009.9 14.0
2017-Dec-05 15:00S 43°59' W 169°25'1 1.4 1009.8 14.0
2017-Dec-05 14:00S 43°59' W 169°27'1 1.3 1009.9 14.0
2017-Dec-05 13:00S 43°59' W 169°29'1 0.2 1010.3 14.0
2017-Dec-05 10:00S 43°59' W 169°29'1 0.7 1012.0 14.0
2017-Dec-05 09:00S 43°58' W 169°30'0 0.4 1012.1 14.0
2017-Dec-05 08:00S 43°58' W 169°31'0 0.2 1012.4 14.0
2017-Dec-05 06:00S 43°58' W 169°31'1 0.6 1013.0 14.0
2017-Dec-05 05:00S 43°58' W 169°31'1 1.3 1013.7 14.0
2017-Dec-05 04:00S 43°59' W 169°31'1 0.7 1013.8 14.0
2017-Dec-05 03:00S 43°59' W 169°31'1 0.5 1014.3 14.1
2017-Dec-05 01:00S 44°00' W 169°32'4 0.9 1015.2 14.1
2017-Dec-04 21:00S 44°01' W 169°37'1 1.4 1017.2 13.9
2017-Dec-04 20:00S 44°02' W 169°39'1 0.7 1017.3 13.9
2017-Dec-04 19:00S 44°01' W 169°40'0 0.0 1017.6 13.9
2017-Dec-04 18:00S 44°01' W 169°40'1 0.2 1017.5 13.9
2017-Dec-04 13:00S 44°02' W 169°40'0 0.0 1017.4 13.8
2017-Dec-04 11:00S 44°02' W 169°40'1 0.7 1018.0 13.9
2017-Dec-04 10:00S 44°03' W 169°40'1 0.7 1017.9 13.9
2017-Dec-04 09:00S 44°04' W 169°41'1 0.4 1017.6 13.9
2017-Dec-04 06:00S 44°05' W 169°41'2 1.8 1015.8 13.9
2017-Dec-04 05:00S 44°05' W 169°43'0 0.0 1014.7 14.0
2017-Dec-04 04:00S 44°05' W 169°43'1 1.4 1014.5 14.0
2017-Dec-04 03:00S 44°06' W 169°45'0 0.0 1014.4 14.0
2017-Dec-04 02:00S 44°06' W 169°45'1 1.1 1014.5 14.0
2017-Dec-04 01:00S 44°05' W 169°46'1 0.2 1014.5 14.0
2017-Dec-03 20:00S 44°05' W 169°45'1 0.7 1015.9 14.0
2017-Dec-03 19:00S 44°06' W 169°46'1 0.7 1015.8 13.9
2017-Dec-03 18:00S 44°07' W 169°45'1 0.6 1015.5 13.9
2017-Dec-03 16:00S 44°08' W 169°46'0 0.0 1014.8 13.9
2017-Dec-03 15:00S 44°08' W 169°46'1 0.7 1014.5 13.9
2017-Dec-03 14:00S 44°08' W 169°46'3 2.8 1014.5 13.9
2017-Dec-03 13:00S 44°10' W 169°50'0 0.0 1014.4 13.9
2017-Dec-03 10:00S 44°10' W 169°50'0 0.4 1014.9 13.9
2017-Dec-03 09:00S 44°10' W 169°50'0 0.0 1014.8 13.9
2017-Dec-03 08:00S 44°10' W 169°50'1 1.0 1014.7 13.9
2017-Dec-03 07:00S 44°10' W 169°52'0 0.0 1014.4 13.9
2017-Dec-03 06:00S 44°10' W 169°52'1 1.4 1014.3 13.9
2017-Dec-03 05:00S 44°11' W 169°53'1 1.0 1014.2 13.9
2017-Dec-03 04:00S 44°11' W 169°55'0 0.0 1014.4 13.9
2017-Dec-03 03:00S 44°11' W 169°55'0 0.0 1014.7 13.9
2017-Dec-03 02:00S 44°11' W 169°55'4 3.9 1014.9 13.9
2017-Dec-03 01:00S 44°14' W 169°59'2 0.4 1015.2 13.9
2017-Dec-02 20:00S 44°14' W 170°02'0 0.4 1016.7 13.7
2017-Dec-02 19:00S 44°14' W 170°02'1 0.7 1017.0 13.7
2017-Dec-02 18:00S 44°15' W 170°03'1 0.9 1017.3 13.7
2017-Dec-02 17:00S 44°15' W 170°04'1 0.6 1017.5 13.7
2017-Dec-02 15:00S 44°15' W 170°06'2 1.7 1018.1 13.7
2017-Dec-02 14:00S 44°15' W 170°08'2 2.1 1018.4 13.8
2017-Dec-02 13:00S 44°16' W 170°11'0 0.0 1019.4 13.8
2017-Dec-02 11:00S 44°16' W 170°11'0 0.4 1021.1 13.8
2017-Dec-02 10:00S 44°16' W 170°11'0 0.4 1021.3 13.8
2017-Dec-02 09:00S 44°16' W 170°12'1 1.0 1021.9 13.8
2017-Dec-02 08:00S 44°17' W 170°13'0 0.0 1022.4 13.8
2017-Dec-02 07:00S 44°17' W 170°13'1 1.0 1022.5 13.9
2017-Dec-02 06:00S 44°17' W 170°14'1 0.7 1022.7 13.9
2017-Dec-02 05:00S 44°18' W 170°15'1 0.7 1022.9 13.9
2017-Dec-02 04:00S 44°19' W 170°16'1 1.4 1023.3 14.0
2017-Dec-02 03:00S 44°19' W 170°17'0 0.0 1023.9 13.9
2017-Dec-02 02:00S 44°19' W 170°17'4 1.0 1024.5 13.9
2017-Dec-01 22:00S 44°22' W 170°22'0 0.0 1026.4 13.7
2017-Dec-01 21:00S 44°22' W 170°22'1 1.0 1026.4 13.6
2017-Dec-01 20:00S 44°22' W 170°23'0 0.4 1026.5 13.6
2017-Dec-01 19:00S 44°22' W 170°24'1 0.4 1026.7 13.6
2017-Dec-01 17:00S 44°23' W 170°25'2 0.9 1026.3 13.5
2017-Dec-01 15:00S 44°24' W 170°26'   1026.5 13.6

Dump ship's entire track history